Seaexpressii — HO4619 — position and weather

sailwx.info

Track history (hours):
 
Tides and Currents Weather Stations Pressure Air Temp Water Temp Dewpoint Dewpoint Depression Visibility Wind Speed Wind Dir Waves Ship Positions

Seaexpressii

Last reported at 2017-Oct-19 20:00 UTC. Time now 2017-Oct-20 19:54 UTC.
Position N 25°56' W 079°32'.

Length 37 m; draft 2.2 m.

Type: Ship (hazmat cat C). MMSI: 356449000.

Date/timePositionNaut miles runAvg speedWind from/ knotsBaromVisibWave heightAir tempDewpointWater temp
2017-Oct-19 20:00N 25°56' W 079°32'5 9.3
2017-Oct-19 19:30N 25°57' W 079°37'4 9.0
2017-Oct-19 19:00N 25°59' W 079°42'5 9.0
2017-Oct-19 18:30N 26°00' W 079°47'5 9.1
2017-Oct-19 18:00N 26°02' W 079°52'5 9.4
2017-Oct-19 17:31N 26°03' W 079°57'5 9.7
2017-Oct-19 17:00N 26°05' W 080°02'5 9.1
2017-Oct-19 16:30N 26°05' W 080°07'2 3.4
2017-Oct-19 16:01N 26°04' W 080°08'0 0.0
2017-Oct-19 15:30N 26°04' W 080°08'0 0.0
2017-Oct-19 15:00N 26°04' W 080°08'0 0.0
2017-Oct-19 14:31N 26°04' W 080°08'0 0.0
2017-Oct-19 14:01N 26°04' W 080°08'0 0.0
2017-Oct-19 13:31N 26°04' W 080°08'0 0.0
2017-Oct-19 13:01N 26°04' W 080°08'0 0.0
2017-Oct-19 12:30N 26°04' W 080°08'0 0.0
2017-Oct-19 12:01N 26°04' W 080°08'0 0.0
2017-Oct-19 11:31N 26°04' W 080°08'0 0.0
2017-Oct-19 11:00N 26°04' W 080°08'0 0.0
2017-Oct-19 10:31N 26°04' W 080°08'0 0.0
2017-Oct-19 10:01N 26°04' W 080°08'1 1.7
2017-Oct-19 09:31N 26°04' W 080°07'2 3.8
2017-Oct-19 09:00N 26°06' W 080°06'5 9.9
2017-Oct-19 08:30N 26°04' W 080°01'4 8.8
2017-Oct-19 08:00N 26°02' W 079°56'4 8.4
2017-Oct-19 07:30N 26°01' W 079°52'4 8.5
2017-Oct-19 07:00N 25°60' W 079°47'4 8.7
2017-Oct-19 06:30N 25°58' W 079°43'5 8.9
2017-Oct-19 05:59N 25°57' W 079°38'  
2017-Oct-15 22:40N 25°55' W 079°34'1 8.8
2017-Oct-15 22:30N 25°56' W 079°36'5 9.2
2017-Oct-15 21:59N 25°57' W 079°41'4 8.9
2017-Oct-15 21:29N 25°59' W 079°46'4 8.6
2017-Oct-15 21:00N 26°00' W 079°50'4 8.6
2017-Oct-15 20:30N 26°02' W 079°54'4 8.7
2017-Oct-15 20:00N 26°04' W 079°59'5 9.1
2017-Oct-15 19:30N 26°05' W 080°03'3 6.4
2017-Oct-15 19:00N 26°04' W 080°07'1 2.3
2017-Oct-15 18:30N 26°04' W 080°08'0 0.0
2017-Oct-15 18:00N 26°04' W 080°08'0 0.0
2017-Oct-15 17:30N 26°04' W 080°08'0 0.0
2017-Oct-15 17:00N 26°04' W 080°08'0 0.0
2017-Oct-15 16:30N 26°04' W 080°08'0 0.0
2017-Oct-15 16:00N 26°04' W 080°08'0 0.0
2017-Oct-15 15:30N 26°04' W 080°08'0 0.0
2017-Oct-15 15:00N 26°04' W 080°08'0 0.0
2017-Oct-15 14:00N 26°04' W 080°08'0 0.0
2017-Oct-15 13:30N 26°04' W 080°08'0 0.0
2017-Oct-15 13:00N 26°04' W 080°08'0 0.0
2017-Oct-15 12:30N 26°04' W 080°08'0 0.0
2017-Oct-15 12:00N 26°04' W 080°08'0 0.0
2017-Oct-15 11:30N 26°04' W 080°08'2 3.9
2017-Oct-15 11:00N 26°05' W 080°07'5 9.2
2017-Oct-15 10:30N 26°04' W 080°02'510.2
2017-Oct-15 10:00N 26°02' W 079°57'510.2
2017-Oct-15 09:30N 26°01' W 079°51'510.0
2017-Oct-15 09:00N 25°60' W 079°46'510.0
2017-Oct-15 08:30N 25°59' W 079°40'9 0.3
2017-Oct-14 04:11N 26°05' W 079°33'2 9.3
2017-Oct-14 04:00N 26°05' W 079°35'5 9.4
2017-Oct-14 03:30N 26°05' W 079°40'5 9.3
2017-Oct-14 03:00N 26°05' W 079°45'5 9.3
2017-Oct-14 02:30N 26°05' W 079°50'511.0
2017-Oct-14 02:00N 26°05' W 079°56'510.6
2017-Oct-14 01:30N 26°05' W 080°03'4 7.8
2017-Oct-14 01:00N 26°05' W 080°07'1 2.3
2017-Oct-14 00:24N 26°04' W 080°08'0 0.0
2017-Oct-14 00:00N 26°04' W 080°08'0 0.0
2017-Oct-13 23:28N 26°04' W 080°08'0 0.0
2017-Oct-13 23:00N 26°04' W 080°08'0 0.0
2017-Oct-13 22:30N 26°04' W 080°08'0 0.0
2017-Oct-13 22:00N 26°04' W 080°08'0 0.0
2017-Oct-13 21:30N 26°04' W 080°08'0 0.0
2017-Oct-13 21:00N 26°04' W 080°08'0 0.0
2017-Oct-13 20:30N 26°04' W 080°08'0 0.0
2017-Oct-13 20:00N 26°04' W 080°08'0 0.2
2017-Oct-13 19:30N 26°04' W 080°08'3 6.0
2017-Oct-13 19:00N 26°05' W 080°05'510.0
2017-Oct-13 18:30N 26°05' W 079°60'510.2
2017-Oct-13 18:00N 26°05' W 079°54'510.2
2017-Oct-13 17:30N 26°05' W 079°48'510.0
2017-Oct-13 17:00N 26°05' W 079°43'510.2
2017-Oct-13 16:30N 26°05' W 079°37'9 0.8
2017-Oct-13 04:07N 26°14' W 079°34'1 9.5
2017-Oct-13 04:00N 26°14' W 079°35'5 9.2
2017-Oct-13 03:30N 26°12' W 079°40'4 8.9
2017-Oct-13 03:00N 26°11' W 079°45'4 8.8
2017-Oct-13 02:30N 26°10' W 079°50'4 8.7
2017-Oct-13 02:00N 26°09' W 079°54'4 8.6
2017-Oct-13 01:30N 26°07' W 079°59'4 8.3
2017-Oct-13 01:00N 26°06' W 080°03'4 7.3
2017-Oct-13 00:30N 26°05' W 080°07'1 2.8
2017-Oct-13 00:00N 26°04' W 080°08'0 0.0
2017-Oct-12 23:30N 26°04' W 080°08'0 0.0
2017-Oct-12 23:00N 26°04' W 080°08'0 0.0
2017-Oct-12 22:30N 26°04' W 080°08'0 0.0
2017-Oct-12 22:00N 26°04' W 080°08'0 0.0
2017-Oct-12 21:30N 26°04' W 080°08'0 0.0
2017-Oct-12 21:00N 26°04' W 080°08'0 0.0
2017-Oct-12 20:30N 26°04' W 080°08'2 3.1
2017-Oct-12 20:00N 26°05' W 080°07'4 8.6
2017-Oct-12 19:30N 26°05' W 080°02'510.3
2017-Oct-12 19:00N 26°05' W 079°56'510.1
2017-Oct-12 18:30N 26°05' W 079°51'510.0
2017-Oct-12 18:00N 26°05' W 079°45'510.0
2017-Oct-12 17:30N 26°05' W 079°39'12 1.0
2017-Oct-12 05:11N 26°15' W 079°32'2 9.0
2017-Oct-12 05:00N 26°15' W 079°34'4 8.9
2017-Oct-12 04:30N 26°13' W 079°39'4 9.0
2017-Oct-12 04:00N 26°12' W 079°43'4 8.8
2017-Oct-12 03:30N 26°10' W 079°48'4 8.7
2017-Oct-12 03:00N 26°09' W 079°53'4 8.6
2017-Oct-12 02:30N 26°07' W 079°57'4 8.6
2017-Oct-12 02:00N 26°06' W 080°02'4 8.8
2017-Oct-12 01:30N 26°06' W 080°07'2 4.5
2017-Oct-12 01:00N 26°04' W 080°08'0 0.1
2017-Oct-12 00:30N 26°04' W 080°08'0 0.0
2017-Oct-12 00:00N 26°04' W 080°08'0 0.0
2017-Oct-11 23:30N 26°04' W 080°08'0 0.0
2017-Oct-11 23:00N 26°04' W 080°08'0 0.0
2017-Oct-11 22:30N 26°04' W 080°08'0 0.0
2017-Oct-11 22:00N 26°04' W 080°08'0 0.0
2017-Oct-11 21:30N 26°04' W 080°08'2 4.4
2017-Oct-11 21:01N 26°06' W 080°07'510.0
2017-Oct-11 20:30N 26°06' W 080°01'5 9.9
2017-Oct-11 20:00N 26°05' W 079°56'510.0
2017-Oct-11 19:30N 26°05' W 079°50'510.0
2017-Oct-11 19:00N 26°05' W 079°45'510.0
2017-Oct-11 18:30N 26°05' W 079°39'5 9.9
2017-Oct-11 18:00N 26°05' W 079°33'31 1.7
2017-Oct-11 00:00N 26°04' W 080°08'0 0.0
2017-Oct-10 23:30N 26°04' W 080°08'1 1.6
2017-Oct-10 23:00N 26°04' W 080°07'3 6.3
2017-Oct-10 22:30N 26°05' W 080°04'510.1
2017-Oct-10 22:00N 26°03' W 079°59'510.5
2017-Oct-10 21:30N 26°01' W 079°53'510.5
2017-Oct-10 21:00N 25°60' W 079°48'510.3
2017-Oct-10 20:30N 25°58' W 079°42'  
Track history (hours):
 
Tides and Currents Weather Stations Pressure Air Temp Water Temp Dewpoint Dewpoint Depression Visibility Wind Speed Wind Dir Waves Ship Positions

Seaexpressii

Last reported at 2017-Oct-19 20:00 UTC. Time now 2017-Oct-20 19:54 UTC.
Position N 25°56' W 079°32'.

Length 37 m; draft 2.2 m.

Type: Ship (hazmat cat C). MMSI: 356449000.

Date/timePositionNaut miles runAvg speedWind from/ knotsBaromVisibWave heightAir tempDewpointWater temp
2017-Oct-19 20:00N 25°56' W 079°32'5 9.3
2017-Oct-19 19:30N 25°57' W 079°37'4 9.0
2017-Oct-19 19:00N 25°59' W 079°42'5 9.0
2017-Oct-19 18:30N 26°00' W 079°47'5 9.1
2017-Oct-19 18:00N 26°02' W 079°52'5 9.4
2017-Oct-19 17:31N 26°03' W 079°57'5 9.7
2017-Oct-19 17:00N 26°05' W 080°02'5 9.1
2017-Oct-19 16:30N 26°05' W 080°07'2 3.4
2017-Oct-19 16:01N 26°04' W 080°08'0 0.0
2017-Oct-19 15:30N 26°04' W 080°08'0 0.0
2017-Oct-19 15:00N 26°04' W 080°08'0 0.0
2017-Oct-19 14:31N 26°04' W 080°08'0 0.0
2017-Oct-19 14:01N 26°04' W 080°08'0 0.0
2017-Oct-19 13:31N 26°04' W 080°08'0 0.0
2017-Oct-19 13:01N 26°04' W 080°08'0 0.0
2017-Oct-19 12:30N 26°04' W 080°08'0 0.0
2017-Oct-19 12:01N 26°04' W 080°08'0 0.0
2017-Oct-19 11:31N 26°04' W 080°08'0 0.0
2017-Oct-19 11:00N 26°04' W 080°08'0 0.0
2017-Oct-19 10:31N 26°04' W 080°08'0 0.0
2017-Oct-19 10:01N 26°04' W 080°08'1 1.7
2017-Oct-19 09:31N 26°04' W 080°07'2 3.8
2017-Oct-19 09:00N 26°06' W 080°06'5 9.9
2017-Oct-19 08:30N 26°04' W 080°01'4 8.8
2017-Oct-19 08:00N 26°02' W 079°56'4 8.4
2017-Oct-19 07:30N 26°01' W 079°52'4 8.5
2017-Oct-19 07:00N 25°60' W 079°47'4 8.7
2017-Oct-19 06:30N 25°58' W 079°43'5 8.9
2017-Oct-19 05:59N 25°57' W 079°38'  
2017-Oct-15 22:40N 25°55' W 079°34'1 8.8
2017-Oct-15 22:30N 25°56' W 079°36'5 9.2
2017-Oct-15 21:59N 25°57' W 079°41'4 8.9
2017-Oct-15 21:29N 25°59' W 079°46'4 8.6
2017-Oct-15 21:00N 26°00' W 079°50'4 8.6
2017-Oct-15 20:30N 26°02' W 079°54'4 8.7
2017-Oct-15 20:00N 26°04' W 079°59'5 9.1
2017-Oct-15 19:30N 26°05' W 080°03'3 6.4
2017-Oct-15 19:00N 26°04' W 080°07'1 2.3
2017-Oct-15 18:30N 26°04' W 080°08'0 0.0
2017-Oct-15 18:00N 26°04' W 080°08'0 0.0
2017-Oct-15 17:30N 26°04' W 080°08'0 0.0
2017-Oct-15 17:00N 26°04' W 080°08'0 0.0
2017-Oct-15 16:30N 26°04' W 080°08'0 0.0
2017-Oct-15 16:00N 26°04' W 080°08'0 0.0
2017-Oct-15 15:30N 26°04' W 080°08'0 0.0
2017-Oct-15 15:00N 26°04' W 080°08'0 0.0
2017-Oct-15 14:00N 26°04' W 080°08'0 0.0
2017-Oct-15 13:30N 26°04' W 080°08'0 0.0
2017-Oct-15 13:00N 26°04' W 080°08'0 0.0
2017-Oct-15 12:30N 26°04' W 080°08'0 0.0
2017-Oct-15 12:00N 26°04' W 080°08'0 0.0
2017-Oct-15 11:30N 26°04' W 080°08'2 3.9
2017-Oct-15 11:00N 26°05' W 080°07'5 9.2
2017-Oct-15 10:30N 26°04' W 080°02'510.2
2017-Oct-15 10:00N 26°02' W 079°57'510.2
2017-Oct-15 09:30N 26°01' W 079°51'510.0
2017-Oct-15 09:00N 25°60' W 079°46'510.0
2017-Oct-15 08:30N 25°59' W 079°40'9 0.3
2017-Oct-14 04:11N 26°05' W 079°33'2 9.3
2017-Oct-14 04:00N 26°05' W 079°35'5 9.4
2017-Oct-14 03:30N 26°05' W 079°40'5 9.3
2017-Oct-14 03:00N 26°05' W 079°45'5 9.3
2017-Oct-14 02:30N 26°05' W 079°50'511.0
2017-Oct-14 02:00N 26°05' W 079°56'510.6
2017-Oct-14 01:30N 26°05' W 080°03'4 7.8
2017-Oct-14 01:00N 26°05' W 080°07'1 2.3
2017-Oct-14 00:24N 26°04' W 080°08'0 0.0
2017-Oct-14 00:00N 26°04' W 080°08'0 0.0
2017-Oct-13 23:28N 26°04' W 080°08'0 0.0
2017-Oct-13 23:00N 26°04' W 080°08'0 0.0
2017-Oct-13 22:30N 26°04' W 080°08'0 0.0
2017-Oct-13 22:00N 26°04' W 080°08'0 0.0
2017-Oct-13 21:30N 26°04' W 080°08'0 0.0
2017-Oct-13 21:00N 26°04' W 080°08'0 0.0
2017-Oct-13 20:30N 26°04' W 080°08'0 0.0
2017-Oct-13 20:00N 26°04' W 080°08'0 0.2
2017-Oct-13 19:30N 26°04' W 080°08'3 6.0
2017-Oct-13 19:00N 26°05' W 080°05'510.0
2017-Oct-13 18:30N 26°05' W 079°60'510.2
2017-Oct-13 18:00N 26°05' W 079°54'510.2
2017-Oct-13 17:30N 26°05' W 079°48'510.0
2017-Oct-13 17:00N 26°05' W 079°43'510.2
2017-Oct-13 16:30N 26°05' W 079°37'9 0.8
2017-Oct-13 04:07N 26°14' W 079°34'1 9.5
2017-Oct-13 04:00N 26°14' W 079°35'5 9.2
2017-Oct-13 03:30N 26°12' W 079°40'4 8.9
2017-Oct-13 03:00N 26°11' W 079°45'4 8.8
2017-Oct-13 02:30N 26°10' W 079°50'4 8.7
2017-Oct-13 02:00N 26°09' W 079°54'4 8.6
2017-Oct-13 01:30N 26°07' W 079°59'4 8.3
2017-Oct-13 01:00N 26°06' W 080°03'4 7.3
2017-Oct-13 00:30N 26°05' W 080°07'1 2.8
2017-Oct-13 00:00N 26°04' W 080°08'0 0.0
2017-Oct-12 23:30N 26°04' W 080°08'0 0.0
2017-Oct-12 23:00N 26°04' W 080°08'0 0.0
2017-Oct-12 22:30N 26°04' W 080°08'0 0.0
2017-Oct-12 22:00N 26°04' W 080°08'0 0.0
2017-Oct-12 21:30N 26°04' W 080°08'0 0.0
2017-Oct-12 21:00N 26°04' W 080°08'0 0.0
2017-Oct-12 20:30N 26°04' W 080°08'2 3.1
2017-Oct-12 20:00N 26°05' W 080°07'4 8.6
2017-Oct-12 19:30N 26°05' W 080°02'510.3
2017-Oct-12 19:00N 26°05' W 079°56'510.1
2017-Oct-12 18:30N 26°05' W 079°51'510.0
2017-Oct-12 18:00N 26°05' W 079°45'510.0
2017-Oct-12 17:30N 26°05' W 079°39'12 1.0
2017-Oct-12 05:11N 26°15' W 079°32'2 9.0
2017-Oct-12 05:00N 26°15' W 079°34'4 8.9
2017-Oct-12 04:30N 26°13' W 079°39'4 9.0
2017-Oct-12 04:00N 26°12' W 079°43'4 8.8
2017-Oct-12 03:30N 26°10' W 079°48'4 8.7
2017-Oct-12 03:00N 26°09' W 079°53'4 8.6
2017-Oct-12 02:30N 26°07' W 079°57'4 8.6
2017-Oct-12 02:00N 26°06' W 080°02'4 8.8
2017-Oct-12 01:30N 26°06' W 080°07'2 4.5
2017-Oct-12 01:00N 26°04' W 080°08'0 0.1
2017-Oct-12 00:30N 26°04' W 080°08'0 0.0
2017-Oct-12 00:00N 26°04' W 080°08'0 0.0
2017-Oct-11 23:30N 26°04' W 080°08'0 0.0
2017-Oct-11 23:00N 26°04' W 080°08'0 0.0
2017-Oct-11 22:30N 26°04' W 080°08'0 0.0
2017-Oct-11 22:00N 26°04' W 080°08'0 0.0
2017-Oct-11 21:30N 26°04' W 080°08'2 4.4
2017-Oct-11 21:01N 26°06' W 080°07'510.0
2017-Oct-11 20:30N 26°06' W 080°01'5 9.9
2017-Oct-11 20:00N 26°05' W 079°56'510.0
2017-Oct-11 19:30N 26°05' W 079°50'510.0
2017-Oct-11 19:00N 26°05' W 079°45'510.0
2017-Oct-11 18:30N 26°05' W 079°39'5 9.9
2017-Oct-11 18:00N 26°05' W 079°33'31 1.7
2017-Oct-11 00:00N 26°04' W 080°08'0 0.0
2017-Oct-10 23:30N 26°04' W 080°08'1 1.6
2017-Oct-10 23:00N 26°04' W 080°07'3 6.3
2017-Oct-10 22:30N 26°05' W 080°04'510.1
2017-Oct-10 22:00N 26°03' W 079°59'510.5
2017-Oct-10 21:30N 26°01' W 079°53'510.5
2017-Oct-10 21:00N 25°60' W 079°48'510.3
2017-Oct-10 20:30N 25°58' W 079°42'  

Dump ship's entire track history